sensor_id;sensor_type;location;lat;lon;timestamp;temperature;humidity
67974;DHT22;54756;51.140;6.952;2023-04-06T00:00:05;0.80;55.70
67974;DHT22;54756;51.140;6.952;2023-04-06T00:02:08;0.80;55.90
67974;DHT22;54756;51.140;6.952;2023-04-06T00:04:09;0.80;56.10
67974;DHT22;54756;51.140;6.952;2023-04-06T00:06:10;0.70;56.20
67974;DHT22;54756;51.140;6.952;2023-04-06T00:08:11;0.70;56.30
67974;DHT22;54756;51.140;6.952;2023-04-06T00:10:11;0.70;56.50
67974;DHT22;54756;51.140;6.952;2023-04-06T00:12:12;0.70;56.80
67974;DHT22;54756;51.140;6.952;2023-04-06T00:14:12;0.70;57.00
67974;DHT22;54756;51.140;6.952;2023-04-06T00:16:13;0.60;57.00
67974;DHT22;54756;51.140;6.952;2023-04-06T00:18:14;0.60;57.30
67974;DHT22;54756;51.140;6.952;2023-04-06T00:20:15;0.60;58.10
67974;DHT22;54756;51.140;6.952;2023-04-06T00:22:16;0.60;58.20
67974;DHT22;54756;51.140;6.952;2023-04-06T00:24:17;0.50;58.10
67974;DHT22;54756;51.140;6.952;2023-04-06T00:26:17;0.50;58.10
67974;DHT22;54756;51.140;6.952;2023-04-06T00:28:18;0.50;58.30
67974;DHT22;54756;51.140;6.952;2023-04-06T00:30:25;0.50;58.50
67974;DHT22;54756;51.140;6.952;2023-04-06T00:32:25;0.50;58.70
67974;DHT22;54756;51.140;6.952;2023-04-06T00:34:26;0.40;58.80
67974;DHT22;54756;51.140;6.952;2023-04-06T00:36:26;0.40;59.00
67974;DHT22;54756;51.140;6.952;2023-04-06T00:38:27;0.40;59.10
67974;DHT22;54756;51.140;6.952;2023-04-06T00:40:27;0.40;59.10
67974;DHT22;54756;51.140;6.952;2023-04-06T00:42:28;0.40;59.20
67974;DHT22;54756;51.140;6.952;2023-04-06T00:44:29;0.40;59.30
67974;DHT22;54756;51.140;6.952;2023-04-06T00:46:30;0.30;59.80
67974;DHT22;54756;51.140;6.952;2023-04-06T00:48:31;0.30;60.10
67974;DHT22;54756;51.140;6.952;2023-04-06T00:50:31;0.30;60.50
67974;DHT22;54756;51.140;6.952;2023-04-06T00:52:33;0.30;61.90
67974;DHT22;54756;51.140;6.952;2023-04-06T00:54:34;0.30;61.10
67974;DHT22;54756;51.140;6.952;2023-04-06T00:56:34;0.30;61.10
67974;DHT22;54756;51.140;6.952;2023-04-06T00:58:36;0.30;61.30
67974;DHT22;54756;51.140;6.952;2023-04-06T01:00:38;0.30;61.10
67974;DHT22;54756;51.140;6.952;2023-04-06T01:02:39;0.30;61.10
67974;DHT22;54756;51.140;6.952;2023-04-06T01:04:40;0.30;61.10
67974;DHT22;54756;51.140;6.952;2023-04-06T01:06:41;0.30;61.10
67974;DHT22;54756;51.140;6.952;2023-04-06T01:08:41;0.30;61.20
67974;DHT22;54756;51.140;6.952;2023-04-06T01:10:42;0.20;63.80
67974;DHT22;54756;51.140;6.952;2023-04-06T01:12:42;0.30;65.70
67974;DHT22;54756;51.140;6.952;2023-04-06T01:14:43;0.30;65.10
67974;DHT22;54756;51.140;6.952;2023-04-06T01:16:44;0.30;64.20
67974;DHT22;54756;51.140;6.952;2023-04-06T01:18:44;0.30;63.60
67974;DHT22;54756;51.140;6.952;2023-04-06T01:20:45;0.30;63.20
67974;DHT22;54756;51.140;6.952;2023-04-06T01:22:45;0.30;62.80
67974;DHT22;54756;51.140;6.952;2023-04-06T01:24:46;0.20;63.00
67974;DHT22;54756;51.140;6.952;2023-04-06T01:26:47;0.20;62.80
67974;DHT22;54756;51.140;6.952;2023-04-06T01:28:48;0.20;62.60
67974;DHT22;54756;51.140;6.952;2023-04-06T01:30:48;0.20;62.50
67974;DHT22;54756;51.140;6.952;2023-04-06T01:32:49;0.20;62.50
67974;DHT22;54756;51.140;6.952;2023-04-06T01:34:49;0.20;62.70
67974;DHT22;54756;51.140;6.952;2023-04-06T01:36:50;0.20;62.90
67974;DHT22;54756;51.140;6.952;2023-04-06T01:38:51;0.20;63.00
67974;DHT22;54756;51.140;6.952;2023-04-06T01:40:52;0.10;62.90
67974;DHT22;54756;51.140;6.952;2023-04-06T01:42:52;0.10;62.90
67974;DHT22;54756;51.140;6.952;2023-04-06T01:44:53;0.10;62.90
67974;DHT22;54756;51.140;6.952;2023-04-06T01:46:53;0.10;62.90
67974;DHT22;54756;51.140;6.952;2023-04-06T01:48:54;0.10;63.00
67974;DHT22;54756;51.140;6.952;2023-04-06T01:50:55;0.10;63.10
67974;DHT22;54756;51.140;6.952;2023-04-06T01:52:55;0.10;63.20
67974;DHT22;54756;51.140;6.952;2023-04-06T01:54:56;0.00;63.20
67974;DHT22;54756;51.140;6.952;2023-04-06T01:56:56;0.00;63.20
67974;DHT22;54756;51.140;6.952;2023-04-06T01:58:57;0.00;63.20
67974;DHT22;54756;51.140;6.952;2023-04-06T02:00:58;0.00;63.20
67974;DHT22;54756;51.140;6.952;2023-04-06T02:02:58;0.00;63.20
67974;DHT22;54756;51.140;6.952;2023-04-06T02:04:59;-0.10;63.10
67974;DHT22;54756;51.140;6.952;2023-04-06T02:06:59;-0.10;63.20
67974;DHT22;54756;51.140;6.952;2023-04-06T02:09:00;-0.10;64.00
67974;DHT22;54756;51.140;6.952;2023-04-06T02:11:00;-0.10;63.60
67974;DHT22;54756;51.140;6.952;2023-04-06T02:13:01;-0.10;63.80
67974;DHT22;54756;51.140;6.952;2023-04-06T02:15:02;-0.20;64.00
67974;DHT22;54756;51.140;6.952;2023-04-06T02:17:02;-0.20;64.10
67974;DHT22;54756;51.140;6.952;2023-04-06T02:19:03;-0.20;64.20
67974;DHT22;54756;51.140;6.952;2023-04-06T02:21:03;-0.20;64.40
67974;DHT22;54756;51.140;6.952;2023-04-06T02:23:04;-0.30;64.50
67974;DHT22;54756;51.140;6.952;2023-04-06T02:25:04;-0.30;64.60
67974;DHT22;54756;51.140;6.952;2023-04-06T02:27:05;-0.30;64.70
67974;DHT22;54756;51.140;6.952;2023-04-06T02:29:06;-0.30;64.80
67974;DHT22;54756;51.140;6.952;2023-04-06T02:31:08;-0.30;65.10
67974;DHT22;54756;51.140;6.952;2023-04-06T02:33:09;-0.40;66.10
67974;DHT22;54756;51.140;6.952;2023-04-06T02:35:09;-0.40;65.40
67974;DHT22;54756;51.140;6.952;2023-04-06T02:37:10;-0.40;65.50
67974;DHT22;54756;51.140;6.952;2023-04-06T02:39:11;-0.40;65.60
67974;DHT22;54756;51.140;6.952;2023-04-06T02:41:11;-0.40;65.80
67974;DHT22;54756;51.140;6.952;2023-04-06T02:43:12;-0.40;65.90
67974;DHT22;54756;51.140;6.952;2023-04-06T02:45:12;-0.50;66.00
67974;DHT22;54756;51.140;6.952;2023-04-06T02:47:13;-0.50;66.30
67974;DHT22;54756;51.140;6.952;2023-04-06T02:49:13;-0.50;66.70
67974;DHT22;54756;51.140;6.952;2023-04-06T02:51:14;-0.50;67.30
67974;DHT22;54756;51.140;6.952;2023-04-06T02:53:15;-0.50;67.70
67974;DHT22;54756;51.140;6.952;2023-04-06T02:55:15;-0.60;68.00
67974;DHT22;54756;51.140;6.952;2023-04-06T02:57:16;-0.60;68.20
67974;DHT22;54756;51.140;6.952;2023-04-06T02:59:16;-0.60;68.20
67974;DHT22;54756;51.140;6.952;2023-04-06T03:01:17;-0.60;68.20
67974;DHT22;54756;51.140;6.952;2023-04-06T03:03:17;-0.60;68.30
67974;DHT22;54756;51.140;6.952;2023-04-06T03:05:18;-0.60;68.20
67974;DHT22;54756;51.140;6.952;2023-04-06T03:07:18;-0.60;68.30
67974;DHT22;54756;51.140;6.952;2023-04-06T03:09:19;-0.60;68.40
67974;DHT22;54756;51.140;6.952;2023-04-06T03:11:20;-0.60;69.50
67974;DHT22;54756;51.140;6.952;2023-04-06T03:13:21;-0.60;70.70
67974;DHT22;54756;51.140;6.952;2023-04-06T03:15:21;-0.60;74.80
67974;DHT22;54756;51.140;6.952;2023-04-06T03:17:22;-0.60;74.80
67974;DHT22;54756;51.140;6.952;2023-04-06T03:19:22;-0.50;74.00
67974;DHT22;54756;51.140;6.952;2023-04-06T03:21:23;-0.50;72.90
67974;DHT22;54756;51.140;6.952;2023-04-06T03:23:23;-0.50;71.90
67974;DHT22;54756;51.140;6.952;2023-04-06T03:25:24;-0.50;71.10
67974;DHT22;54756;51.140;6.952;2023-04-06T03:27:25;-0.60;70.80
67974;DHT22;54756;51.140;6.952;2023-04-06T03:29:25;-0.60;70.50
67974;DHT22;54756;51.140;6.952;2023-04-06T03:31:27;-0.60;70.50
67974;DHT22;54756;51.140;6.952;2023-04-06T03:33:27;-0.60;70.40
67974;DHT22;54756;51.140;6.952;2023-04-06T03:35:28;-0.60;70.50
67974;DHT22;54756;51.140;6.952;2023-04-06T03:37:28;-0.70;70.50
67974;DHT22;54756;51.140;6.952;2023-04-06T03:39:29;-0.70;70.80
67974;DHT22;54756;51.140;6.952;2023-04-06T03:41:30;-0.70;70.80
67974;DHT22;54756;51.140;6.952;2023-04-06T03:43:30;-0.70;70.80
67974;DHT22;54756;51.140;6.952;2023-04-06T03:45:31;-0.70;70.80
67974;DHT22;54756;51.140;6.952;2023-04-06T03:47:31;-0.70;70.80
67974;DHT22;54756;51.140;6.952;2023-04-06T03:49:32;-0.70;70.80
67974;DHT22;54756;51.140;6.952;2023-04-06T03:51:32;-0.70;70.80
67974;DHT22;54756;51.140;6.952;2023-04-06T03:53:33;-0.70;70.90
67974;DHT22;54756;51.140;6.952;2023-04-06T03:55:33;-0.80;70.80
67974;DHT22;54756;51.140;6.952;2023-04-06T03:57:34;-0.70;71.00
67974;DHT22;54756;51.140;6.952;2023-04-06T03:59:35;-0.70;71.50
67974;DHT22;54756;51.140;6.952;2023-04-06T04:01:35;-0.80;71.10
67974;DHT22;54756;51.140;6.952;2023-04-06T04:03:36;-0.80;71.40
67974;DHT22;54756;51.140;6.952;2023-04-06T04:05:36;-0.80;71.70
67974;DHT22;54756;51.140;6.952;2023-04-06T04:07:37;-0.80;71.70
67974;DHT22;54756;51.140;6.952;2023-04-06T04:09:38;-0.80;71.70
67974;DHT22;54756;51.140;6.952;2023-04-06T04:11:38;-0.80;72.10
67974;DHT22;54756;51.140;6.952;2023-04-06T04:13:39;-0.80;73.60
67974;DHT22;54756;51.140;6.952;2023-04-06T04:15:39;-0.80;76.20
67974;DHT22;54756;51.140;6.952;2023-04-06T04:17:40;-0.80;76.40
67974;DHT22;54756;51.140;6.952;2023-04-06T04:19:40;-0.80;77.00
67974;DHT22;54756;51.140;6.952;2023-04-06T04:21:45;-0.80;77.00
67974;DHT22;54756;51.140;6.952;2023-04-06T04:23:46;-0.80;76.70
67974;DHT22;54756;51.140;6.952;2023-04-06T04:25:46;-0.80;76.30
67974;DHT22;54756;51.140;6.952;2023-04-06T04:27:47;-0.80;77.60
67974;DHT22;54756;51.140;6.952;2023-04-06T04:29:47;-0.80;79.30
67974;DHT22;54756;51.140;6.952;2023-04-06T04:31:49;-0.80;77.70
67974;DHT22;54756;51.140;6.952;2023-04-06T04:33:49;-0.80;76.40
67974;DHT22;54756;51.140;6.952;2023-04-06T04:35:50;-0.80;75.50
67974;DHT22;54756;51.140;6.952;2023-04-06T04:37:51;-0.90;75.00
67974;DHT22;54756;51.140;6.952;2023-04-06T04:39:51;-0.90;74.60
67974;DHT22;54756;51.140;6.952;2023-04-06T04:41:52;-0.90;74.50
67974;DHT22;54756;51.140;6.952;2023-04-06T04:43:52;-0.90;74.60
67974;DHT22;54756;51.140;6.952;2023-04-06T04:45:53;-0.90;74.70
67974;DHT22;54756;51.140;6.952;2023-04-06T04:47:53;-0.90;74.80
67974;DHT22;54756;51.140;6.952;2023-04-06T04:49:54;-0.90;74.80
67974;DHT22;54756;51.140;6.952;2023-04-06T04:51:54;-0.90;74.70
67974;DHT22;54756;51.140;6.952;2023-04-06T04:53:55;-0.90;74.70
67974;DHT22;54756;51.140;6.952;2023-04-06T04:55:56;-0.90;74.60
67974;DHT22;54756;51.140;6.952;2023-04-06T04:57:56;-0.90;74.60
67974;DHT22;54756;51.140;6.952;2023-04-06T04:59:56;-0.90;74.60
67974;DHT22;54756;51.140;6.952;2023-04-06T05:01:58;-0.90;74.60
67974;DHT22;54756;51.140;6.952;2023-04-06T05:03:58;-0.90;74.50
67974;DHT22;54756;51.140;6.952;2023-04-06T05:05:59;-0.90;74.50
67974;DHT22;54756;51.140;6.952;2023-04-06T05:07:59;-0.90;74.60
67974;DHT22;54756;51.140;6.952;2023-04-06T05:10:00;-0.80;74.70
67974;DHT22;54756;51.140;6.952;2023-04-06T05:12:01;-0.80;74.70
67974;DHT22;54756;51.140;6.952;2023-04-06T05:14:01;-0.70;74.70
67974;DHT22;54756;51.140;6.952;2023-04-06T05:16:02;-0.70;74.70
67974;DHT22;54756;51.140;6.952;2023-04-06T05:18:03;-0.70;74.80
67974;DHT22;54756;51.140;6.952;2023-04-06T05:20:04;-0.70;74.90
67974;DHT22;54756;51.140;6.952;2023-04-06T05:22:04;-0.70;74.90
67974;DHT22;54756;51.140;6.952;2023-04-06T05:24:05;-0.60;75.10
67974;DHT22;54756;51.140;6.952;2023-04-06T05:26:06;-0.60;75.00
67974;DHT22;54756;51.140;6.952;2023-04-06T05:28:06;-0.50;75.10
67974;DHT22;54756;51.140;6.952;2023-04-06T05:30:07;-0.50;75.00
67974;DHT22;54756;51.140;6.952;2023-04-06T05:32:08;-0.50;74.90
67974;DHT22;54756;51.140;6.952;2023-04-06T05:34:09;-0.40;75.00
67974;DHT22;54756;51.140;6.952;2023-04-06T05:36:10;-0.30;75.90
67974;DHT22;54756;51.140;6.952;2023-04-06T05:38:12;-0.20;75.10
67974;DHT22;54756;51.140;6.952;2023-04-06T05:40:12;-0.20;74.60
67974;DHT22;54756;51.140;6.952;2023-04-06T05:42:13;-0.10;74.30
67974;DHT22;54756;51.140;6.952;2023-04-06T05:44:13;0.00;74.10
67974;DHT22;54756;51.140;6.952;2023-04-06T05:46:14;0.00;73.80
67974;DHT22;54756;51.140;6.952;2023-04-06T05:48:14;0.10;73.80
67974;DHT22;54756;51.140;6.952;2023-04-06T05:50:15;0.10;73.60
67974;DHT22;54756;51.140;6.952;2023-04-06T05:52:16;0.20;73.90
67974;DHT22;54756;51.140;6.952;2023-04-06T05:54:16;0.30;73.90
67974;DHT22;54756;51.140;6.952;2023-04-06T05:56:17;0.40;74.00
67974;DHT22;54756;51.140;6.952;2023-04-06T05:58:17;0.50;74.40
67974;DHT22;54756;51.140;6.952;2023-04-06T06:00:18;0.60;74.00
67974;DHT22;54756;51.140;6.952;2023-04-06T06:02:19;0.70;73.40
67974;DHT22;54756;51.140;6.952;2023-04-06T06:04:20;0.80;72.70
67974;DHT22;54756;51.140;6.952;2023-04-06T06:06:20;0.90;72.30
67974;DHT22;54756;51.140;6.952;2023-04-06T06:08:21;1.00;71.90
67974;DHT22;54756;51.140;6.952;2023-04-06T06:10:22;1.00;72.00
67974;DHT22;54756;51.140;6.952;2023-04-06T06:12:22;1.10;71.80
67974;DHT22;54756;51.140;6.952;2023-04-06T06:14:23;1.20;71.80
67974;DHT22;54756;51.140;6.952;2023-04-06T06:16:23;1.30;71.60
67974;DHT22;54756;51.140;6.952;2023-04-06T06:18:24;1.40;71.70
67974;DHT22;54756;51.140;6.952;2023-04-06T06:20:24;1.50;71.40
67974;DHT22;54756;51.140;6.952;2023-04-06T06:22:26;1.70;68.10
67974;DHT22;54756;51.140;6.952;2023-04-06T06:24:26;1.90;67.30
67974;DHT22;54756;51.140;6.952;2023-04-06T06:26:27;2.10;66.10
67974;DHT22;54756;51.140;6.952;2023-04-06T06:28:27;2.20;65.50
67974;DHT22;54756;51.140;6.952;2023-04-06T06:30:28;2.40;64.40
67974;DHT22;54756;51.140;6.952;2023-04-06T06:32:28;2.50;60.00
67974;DHT22;54756;51.140;6.952;2023-04-06T06:34:29;2.70;59.10
67974;DHT22;54756;51.140;6.952;2023-04-06T06:36:30;2.80;58.60
67974;DHT22;54756;51.140;6.952;2023-04-06T06:38:31;2.90;58.20
67974;DHT22;54756;51.140;6.952;2023-04-06T06:40:33;3.10;56.20
67974;DHT22;54756;51.140;6.952;2023-04-06T06:42:33;3.30;52.90
67974;DHT22;54756;51.140;6.952;2023-04-06T06:44:34;3.50;52.90
67974;DHT22;54756;51.140;6.952;2023-04-06T06:46:35;3.60;50.90
67974;DHT22;54756;51.140;6.952;2023-04-06T06:48:35;3.80;50.50
67974;DHT22;54756;51.140;6.952;2023-04-06T06:50:36;4.00;47.60
67974;DHT22;54756;51.140;6.952;2023-04-06T06:52:36;4.10;43.30
67974;DHT22;54756;51.140;6.952;2023-04-06T06:54:37;4.30;44.60
67974;DHT22;54756;51.140;6.952;2023-04-06T06:56:38;4.50;42.60
67974;DHT22;54756;51.140;6.952;2023-04-06T06:58:39;4.60;39.70
67974;DHT22;54756;51.140;6.952;2023-04-06T07:00:39;4.80;38.20
67974;DHT22;54756;51.140;6.952;2023-04-06T07:02:40;5.00;34.10
67974;DHT22;54756;51.140;6.952;2023-04-06T07:04:40;5.10;33.70
67974;DHT22;54756;51.140;6.952;2023-04-06T07:06:41;5.30;30.90
67974;DHT22;54756;51.140;6.952;2023-04-06T07:08:41;5.50;28.90
67974;DHT22;54756;51.140;6.952;2023-04-06T07:10:42;5.60;28.30
67974;DHT22;54756;51.140;6.952;2023-04-06T07:12:42;5.90;27.20
67974;DHT22;54756;51.140;6.952;2023-04-06T07:14:43;6.10;25.00
67974;DHT22;54756;51.140;6.952;2023-04-06T07:16:43;6.30;23.90
67974;DHT22;54756;51.140;6.952;2023-04-06T07:18:45;6.50;24.20
67974;DHT22;54756;51.140;6.952;2023-04-06T07:20:46;6.70;26.40
67974;DHT22;54756;51.140;6.952;2023-04-06T07:22:47;6.90;23.10
67974;DHT22;54756;51.140;6.952;2023-04-06T07:24:48;7.20;19.50
67974;DHT22;54756;51.140;6.952;2023-04-06T07:26:49;7.40;15.70
67974;DHT22;54756;51.140;6.952;2023-04-06T07:28:49;7.60;11.20
67974;DHT22;54756;51.140;6.952;2023-04-06T07:30:50;7.80;6.70
67974;DHT22;54756;51.140;6.952;2023-04-06T07:32:51;8.00;5.70
67974;DHT22;54756;51.140;6.952;2023-04-06T07:34:52;8.20;7.50
67974;DHT22;54756;51.140;6.952;2023-04-06T07:36:52;8.30;8.50
67974;DHT22;54756;51.140;6.952;2023-04-06T07:38:54;8.50;9.80
67974;DHT22;54756;51.140;6.952;2023-04-06T07:40:54;8.80;8.70
67974;DHT22;54756;51.140;6.952;2023-04-06T07:42:55;9.00;7.00
67974;DHT22;54756;51.140;6.952;2023-04-06T07:44:55;9.10;3.80
67974;DHT22;54756;51.140;6.952;2023-04-06T07:46:56;9.20;1.00
67974;DHT22;54756;51.140;6.952;2023-04-06T07:48:57;9.30;1.00
67974;DHT22;54756;51.140;6.952;2023-04-06T07:51:02;9.30;1.00
67974;DHT22;54756;51.140;6.952;2023-04-06T07:53:03;9.20;1.00
67974;DHT22;54756;51.140;6.952;2023-04-06T07:55:04;9.20;1.00
67974;DHT22;54756;51.140;6.952;2023-04-06T07:57:04;9.30;1.00
67974;DHT22;54756;51.140;6.952;2023-04-06T07:59:05;9.30;1.00
67974;DHT22;54756;51.140;6.952;2023-04-06T08:01:06;9.30;1.00
67974;DHT22;54756;51.140;6.952;2023-04-06T08:03:06;9.40;1.00
67974;DHT22;54756;51.140;6.952;2023-04-06T08:05:07;9.40;1.00
67974;DHT22;54756;51.140;6.952;2023-04-06T08:07:08;9.50;1.00
67974;DHT22;54756;51.140;6.952;2023-04-06T08:09:08;9.50;1.00
67974;DHT22;54756;51.140;6.952;2023-04-06T08:11:09;9.60;1.00
67974;DHT22;54756;51.140;6.952;2023-04-06T08:13:10;9.80;1.00
67974;DHT22;54756;51.140;6.952;2023-04-06T08:15:10;9.90;1.00
67974;DHT22;54756;51.140;6.952;2023-04-06T08:17:11;10.10;1.00
67974;DHT22;54756;51.140;6.952;2023-04-06T08:19:11;10.20;1.00
67974;DHT22;54756;51.140;6.952;2023-04-06T08:21:12;10.40;1.00
67974;DHT22;54756;51.140;6.952;2023-04-06T08:23:13;10.50;1.00
67974;DHT22;54756;51.140;6.952;2023-04-06T08:25:13;10.70;1.00
67974;DHT22;54756;51.140;6.952;2023-04-06T08:27:14;10.80;1.00
67974;DHT22;54756;51.140;6.952;2023-04-06T08:29:14;10.90;1.00
67974;DHT22;54756;51.140;6.952;2023-04-06T08:31:16;11.00;1.00
67974;DHT22;54756;51.140;6.952;2023-04-06T08:33:17;10.90;1.00
67974;DHT22;54756;51.140;6.952;2023-04-06T08:35:17;10.90;1.00
67974;DHT22;54756;51.140;6.952;2023-04-06T08:37:18;11.00;1.00
67974;DHT22;54756;51.140;6.952;2023-04-06T08:39:18;11.10;1.00
67974;DHT22;54756;51.140;6.952;2023-04-06T08:41:27;11.10;1.00
67974;DHT22;54756;51.140;6.952;2023-04-06T08:43:29;11.20;1.00
67974;DHT22;54756;51.140;6.952;2023-04-06T08:45:29;11.30;1.00
67974;DHT22;54756;51.140;6.952;2023-04-06T08:47:30;11.40;1.00
67974;DHT22;54756;51.140;6.952;2023-04-06T08:49:32;11.50;1.00
67974;DHT22;54756;51.140;6.952;2023-04-06T08:51:36;11.70;1.00
67974;DHT22;54756;51.140;6.952;2023-04-06T08:53:38;12.00;1.00
67974;DHT22;54756;51.140;6.952;2023-04-06T08:55:39;12.20;1.00
67974;DHT22;54756;51.140;6.952;2023-04-06T08:57:41;12.30;1.00
67974;DHT22;54756;51.140;6.952;2023-04-06T08:59:42;12.50;1.00
67974;DHT22;54756;51.140;6.952;2023-04-06T09:01:44;12.70;1.00
67974;DHT22;54756;51.140;6.952;2023-04-06T09:03:46;12.90;1.00
67974;DHT22;54756;51.140;6.952;2023-04-06T09:05:48;13.10;1.00
67974;DHT22;54756;51.140;6.952;2023-04-06T09:07:50;13.30;1.00
67974;DHT22;54756;51.140;6.952;2023-04-06T09:09:50;13.50;1.00
67974;DHT22;54756;51.140;6.952;2023-04-06T09:11:52;13.60;1.00
67974;DHT22;54756;51.140;6.952;2023-04-06T09:13:54;13.80;1.00
67974;DHT22;54756;51.140;6.952;2023-04-06T09:16:03;14.00;1.00
67974;DHT22;54756;51.140;6.952;2023-04-06T09:18:04;14.10;1.00
67974;DHT22;54756;51.140;6.952;2023-04-06T09:20:05;14.30;1.00
67974;DHT22;54756;51.140;6.952;2023-04-06T09:22:06;14.50;1.00
67974;DHT22;54756;51.140;6.952;2023-04-06T09:24:10;14.60;1.00
67974;DHT22;54756;51.140;6.952;2023-04-06T09:26:17;14.70;1.00
67974;DHT22;54756;51.140;6.952;2023-04-06T09:28:17;14.70;1.00
67974;DHT22;54756;51.140;6.952;2023-04-06T09:30:18;14.90;1.00
67974;DHT22;54756;51.140;6.952;2023-04-06T09:32:19;15.00;1.00
67974;DHT22;54756;51.140;6.952;2023-04-06T09:34:22;15.00;1.00
67974;DHT22;54756;51.140;6.952;2023-04-06T09:36:35;14.90;1.00
67974;DHT22;54756;51.140;6.952;2023-04-06T09:38:39;15.00;1.00
67974;DHT22;54756;51.140;6.952;2023-04-06T09:40:51;15.20;1.00
67974;DHT22;54756;51.140;6.952;2023-04-06T09:42:51;15.30;1.00
67974;DHT22;54756;51.140;6.952;2023-04-06T09:44:54;15.30;1.00
67974;DHT22;54756;51.140;6.952;2023-04-06T09:46:55;15.50;1.00
67974;DHT22;54756;51.140;6.952;2023-04-06T09:48:55;15.60;1.00
67974;DHT22;54756;51.140;6.952;2023-04-06T09:50:59;15.80;1.00
67974;DHT22;54756;51.140;6.952;2023-04-06T09:53:03;15.90;1.00
67974;DHT22;54756;51.140;6.952;2023-04-06T09:55:05;15.80;1.00
67974;DHT22;54756;51.140;6.952;2023-04-06T09:57:28;15.70;1.00
67974;DHT22;54756;51.140;6.952;2023-04-06T10:00:03;15.70;1.00
67974;DHT22;54756;51.140;6.952;2023-04-06T10:02:28;15.90;1.00
67974;DHT22;54756;51.140;6.952;2023-04-06T10:04:43;16.10;1.00
67974;DHT22;54756;51.140;6.952;2023-04-06T10:06:44;16.20;1.00
67974;DHT22;54756;51.140;6.952;2023-04-06T10:08:50;16.30;1.00
67974;DHT22;54756;51.140;6.952;2023-04-06T10:10:52;16.50;1.00
67974;DHT22;54756;51.140;6.952;2023-04-06T10:12:53;16.80;1.00
67974;DHT22;54756;51.140;6.952;2023-04-06T10:14:55;17.10;1.00
67974;DHT22;54756;51.140;6.952;2023-04-06T10:16:57;17.40;1.00
67974;DHT22;54756;51.140;6.952;2023-04-06T10:19:05;17.70;1.00
67974;DHT22;54756;51.140;6.952;2023-04-06T10:21:11;17.90;1.00
67974;DHT22;54756;51.140;6.952;2023-04-06T10:25:17;18.00;1.00
67974;DHT22;54756;51.140;6.952;2023-04-06T10:27:27;17.90;99.90
67974;DHT22;54756;51.140;6.952;2023-04-06T10:29:44;17.90;99.90
67974;DHT22;54756;51.140;6.952;2023-04-06T10:31:48;17.90;99.90
67974;DHT22;54756;51.140;6.952;2023-04-06T10:33:59;18.00;1.00
67974;DHT22;54756;51.140;6.952;2023-04-06T10:36:21;18.00;99.90
67974;DHT22;54756;51.140;6.952;2023-04-06T10:38:37;17.80;99.90
67974;DHT22;54756;51.140;6.952;2023-04-06T10:40:39;17.90;1.00
67974;DHT22;54756;51.140;6.952;2023-04-06T10:42:39;17.90;1.00
67974;DHT22;54756;51.140;6.952;2023-04-06T10:44:43;18.00;1.00
67974;DHT22;54756;51.140;6.952;2023-04-06T10:46:58;18.00;1.00
67974;DHT22;54756;51.140;6.952;2023-04-06T10:49:11;17.80;1.00
67974;DHT22;54756;51.140;6.952;2023-04-06T10:51:16;17.70;1.00
67974;DHT22;54756;51.140;6.952;2023-04-06T10:53:24;17.60;1.00
67974;DHT22;54756;51.140;6.952;2023-04-06T10:55:26;17.60;1.00
67974;DHT22;54756;51.140;6.952;2023-04-06T10:57:28;17.80;1.00
67974;DHT22;54756;51.140;6.952;2023-04-06T10:59:29;18.00;1.00
67974;DHT22;54756;51.140;6.952;2023-04-06T11:01:30;18.30;1.00
67974;DHT22;54756;51.140;6.952;2023-04-06T11:03:31;18.50;1.00
67974;DHT22;54756;51.140;6.952;2023-04-06T11:05:32;18.70;1.00
67974;DHT22;54756;51.140;6.952;2023-04-06T11:07:33;19.00;99.90
67974;DHT22;54756;51.140;6.952;2023-04-06T11:09:34;19.20;99.90
67974;DHT22;54756;51.140;6.952;2023-04-06T11:11:38;19.40;1.00
67974;DHT22;54756;51.140;6.952;2023-04-06T11:13:43;19.40;1.00
67974;DHT22;54756;51.140;6.952;2023-04-06T11:15:44;19.50;99.90
67974;DHT22;54756;51.140;6.952;2023-04-06T11:17:45;19.70;1.00
67974;DHT22;54756;51.140;6.952;2023-04-06T11:19:46;20.00;1.00
67974;DHT22;54756;51.140;6.952;2023-04-06T11:21:48;20.30;99.90
67974;DHT22;54756;51.140;6.952;2023-04-06T11:23:49;20.40;99.90
67974;DHT22;54756;51.140;6.952;2023-04-06T11:25:51;20.30;99.90
67974;DHT22;54756;51.140;6.952;2023-04-06T11:27:52;20.20;99.90
67974;DHT22;54756;51.140;6.952;2023-04-06T11:29:52;19.90;1.00
67974;DHT22;54756;51.140;6.952;2023-04-06T11:31:59;19.70;1.00
67974;DHT22;54756;51.140;6.952;2023-04-06T11:34:00;19.30;81.80
67974;DHT22;54756;51.140;6.952;2023-04-06T11:36:01;19.00;99.90
67974;DHT22;54756;51.140;6.952;2023-04-06T11:38:03;18.60;1.00
67974;DHT22;54756;51.140;6.952;2023-04-06T11:40:08;18.30;1.00
67974;DHT22;54756;51.140;6.952;2023-04-06T11:42:08;18.00;99.90
67974;DHT22;54756;51.140;6.952;2023-04-06T11:44:09;17.80;1.00
67974;DHT22;54756;51.140;6.952;2023-04-06T11:46:10;17.60;88.10
67974;DHT22;54756;51.140;6.952;2023-04-06T11:48:21;17.50;99.90
67974;DHT22;54756;51.140;6.952;2023-04-06T11:50:23;17.40;1.00
67974;DHT22;54756;51.140;6.952;2023-04-06T11:52:25;17.20;1.00
67974;DHT22;54756;51.140;6.952;2023-04-06T11:54:33;17.10;1.00
67974;DHT22;54756;51.140;6.952;2023-04-06T11:56:34;17.10;1.00
67974;DHT22;54756;51.140;6.952;2023-04-06T11:58:35;17.00;1.00
67974;DHT22;54756;51.140;6.952;2023-04-06T12:00:35;16.90;1.00
67974;DHT22;54756;51.140;6.952;2023-04-06T12:02:38;16.90;1.00
67974;DHT22;54756;51.140;6.952;2023-04-06T12:04:38;16.90;1.00
67974;DHT22;54756;51.140;6.952;2023-04-06T12:06:41;16.80;1.00
67974;DHT22;54756;51.140;6.952;2023-04-06T12:08:41;16.90;1.00
67974;DHT22;54756;51.140;6.952;2023-04-06T12:10:42;17.00;1.00
67974;DHT22;54756;51.140;6.952;2023-04-06T12:12:42;17.10;1.00
67974;DHT22;54756;51.140;6.952;2023-04-06T12:14:43;17.30;1.00
67974;DHT22;54756;51.140;6.952;2023-04-06T12:16:44;17.40;1.00
67974;DHT22;54756;51.140;6.952;2023-04-06T12:18:44;17.60;1.00
67974;DHT22;54756;51.140;6.952;2023-04-06T12:20:45;17.90;1.00
67974;DHT22;54756;51.140;6.952;2023-04-06T12:22:45;18.10;1.00
67974;DHT22;54756;51.140;6.952;2023-04-06T12:24:46;18.30;1.00
67974;DHT22;54756;51.140;6.952;2023-04-06T12:26:47;18.30;1.00
67974;DHT22;54756;51.140;6.952;2023-04-06T12:28:48;18.20;1.00
67974;DHT22;54756;51.140;6.952;2023-04-06T12:30:48;17.90;1.00
67974;DHT22;54756;51.140;6.952;2023-04-06T12:32:50;17.70;1.00
67974;DHT22;54756;51.140;6.952;2023-04-06T12:34:52;17.60;1.00
67974;DHT22;54756;51.140;6.952;2023-04-06T12:36:53;17.50;1.00
67974;DHT22;54756;51.140;6.952;2023-04-06T12:38:53;17.50;1.00
67974;DHT22;54756;51.140;6.952;2023-04-06T12:40:54;17.40;1.00
67974;DHT22;54756;51.140;6.952;2023-04-06T12:42:54;17.40;1.00
67974;DHT22;54756;51.140;6.952;2023-04-06T12:44:55;17.40;1.00
67974;DHT22;54756;51.140;6.952;2023-04-06T12:46:56;17.40;1.00
67974;DHT22;54756;51.140;6.952;2023-04-06T12:48:57;17.50;1.00
67974;DHT22;54756;51.140;6.952;2023-04-06T12:51:01;17.40;1.00
67974;DHT22;54756;51.140;6.952;2023-04-06T12:53:02;17.40;1.00
67974;DHT22;54756;51.140;6.952;2023-04-06T12:55:03;17.40;1.00
67974;DHT22;54756;51.140;6.952;2023-04-06T12:57:05;17.50;1.00
67974;DHT22;54756;51.140;6.952;2023-04-06T12:59:05;17.40;1.00